createdAt,value
2023-11-03T00:03:18.226Z,0.73
2023-11-03T00:07:01.047Z,0.70
2023-11-03T00:10:45.239Z,0.70
2023-11-03T00:14:28.587Z,0.53
2023-11-03T00:18:12.337Z,0.60
2023-11-03T00:21:55.296Z,0.70
2023-11-03T00:25:38.069Z,0.70
2023-11-03T00:29:22.183Z,0.73
2023-11-03T00:33:05.031Z,0.73
2023-11-03T00:36:48.770Z,0.50
2023-11-03T00:40:31.935Z,0.40
2023-11-03T00:44:14.649Z,0.70
2023-11-03T00:47:59.259Z,0.60
2023-11-03T00:51:42.320Z,0.60
2023-11-03T00:55:25.098Z,0.50
2023-11-03T00:59:09.009Z,0.53
2023-11-03T01:02:51.876Z,0.50
2023-11-03T01:06:36.508Z,0.40
2023-11-03T01:10:19.546Z,0.50
2023-11-03T01:14:02.269Z,0.50
2023-11-03T01:17:45.102Z,0.40
2023-11-03T01:21:29.259Z,0.40
2023-11-03T01:25:13.969Z,0.50
2023-11-03T01:28:57.522Z,0.60
2023-11-03T01:32:40.311Z,0.57
2023-11-03T01:36:23.805Z,0.60
2023-11-03T01:40:09.925Z,0.63
2023-11-03T01:44:08.351Z,0.80
2023-11-03T01:47:51.205Z,0.70
2023-11-03T01:51:34.698Z,0.80
2023-11-03T01:55:17.962Z,0.70
2023-11-03T01:59:03.772Z,0.60
2023-11-03T02:02:48.902Z,0.63
2023-11-03T02:06:31.874Z,0.60
2023-11-03T02:10:14.729Z,0.50
2023-11-03T02:13:57.974Z,0.50
2023-11-03T02:17:41.509Z,0.50
2023-11-03T02:21:25.601Z,0.70
2023-11-03T02:25:10.615Z,0.77
2023-11-03T02:28:54.036Z,0.60
2023-11-03T02:32:36.780Z,0.70
2023-11-03T02:36:20.421Z,0.70
2023-11-03T02:40:03.422Z,0.60
2023-11-03T02:43:47.687Z,0.80
2023-11-03T02:47:30.809Z,0.90
2023-11-03T02:51:13.686Z,0.73
2023-11-03T02:54:56.525Z,0.80
2023-11-03T02:58:40.099Z,0.80
2023-11-03T03:02:24.251Z,1.00
2023-11-03T03:06:07.290Z,0.80
2023-11-03T03:09:50.062Z,0.60
2023-11-03T03:13:32.817Z,0.80
2023-11-03T03:17:15.573Z,1.03
2023-11-03T03:20:59.658Z,0.70
2023-11-03T03:24:42.468Z,0.73
2023-11-03T03:28:25.253Z,0.90
2023-11-03T03:32:08.178Z,0.80
2023-11-03T03:35:51.253Z,0.80
2023-11-03T03:39:35.457Z,0.80
2023-11-03T03:43:18.173Z,0.90
2023-11-03T03:47:00.980Z,0.80
2023-11-03T03:50:43.719Z,0.87
2023-11-03T03:54:26.431Z,0.90
2023-11-03T03:58:10.558Z,0.83
2023-11-03T04:01:53.277Z,0.80
2023-11-03T04:05:36.055Z,0.87
2023-11-03T04:09:18.801Z,0.90
2023-11-03T04:13:01.554Z,0.80
2023-11-03T04:16:45.662Z,2.70
2023-11-03T04:20:28.389Z,1.23
2023-11-03T04:24:11.268Z,0.93
2023-11-03T04:27:54.008Z,1.00
2023-11-03T04:31:36.773Z,1.00
2023-11-03T04:35:20.912Z,1.00
2023-11-03T04:39:06.408Z,1.00
2023-11-03T04:42:49.202Z,1.10
2023-11-03T04:46:31.938Z,1.27
2023-11-03T04:50:14.692Z,1.10
2023-11-03T04:53:58.814Z,1.10
2023-11-03T04:57:42.056Z,1.13
2023-11-03T05:01:24.783Z,0.90
2023-11-03T05:05:08.345Z,1.30
2023-11-03T05:08:51.053Z,1.00
2023-11-03T05:12:35.142Z,0.90
2023-11-03T05:16:17.886Z,0.90
2023-11-03T05:20:00.557Z,1.10
2023-11-03T05:23:43.311Z,1.00
2023-11-03T05:27:26.063Z,1.20
2023-11-03T05:31:10.401Z,1.00
2023-11-03T05:34:53.375Z,1.37
2023-11-03T05:38:36.112Z,1.10
2023-11-03T05:42:18.880Z,1.00
2023-11-03T05:46:01.798Z,1.20
2023-11-03T05:49:45.996Z,1.37
2023-11-03T05:53:28.742Z,1.10
2023-11-03T05:57:11.586Z,0.80
2023-11-03T06:00:55.506Z,1.10
2023-11-03T06:04:38.422Z,0.93
2023-11-03T06:08:22.699Z,1.13
2023-11-03T06:12:06.489Z,1.20
2023-11-03T06:15:49.371Z,1.10
2023-11-03T06:19:32.581Z,1.00
2023-11-03T06:23:15.337Z,1.27
2023-11-03T06:27:00.931Z,1.03
2023-11-03T06:30:44.211Z,1.27
2023-11-03T06:34:27.067Z,0.90
2023-11-03T06:38:09.883Z,1.13
2023-11-03T06:41:52.614Z,0.90
2023-11-03T06:45:36.739Z,1.00
2023-11-03T06:49:19.577Z,1.30
2023-11-03T06:53:02.570Z,1.20
2023-11-03T06:56:46.448Z,1.10
2023-11-03T07:00:29.809Z,1.03
2023-11-03T07:04:15.444Z,1.10
2023-11-03T07:07:58.591Z,1.20
2023-11-03T07:11:41.996Z,1.10
2023-11-03T07:15:24.883Z,1.10
2023-11-03T07:19:15.224Z,1.33
2023-11-03T07:22:58.175Z,1.40
2023-11-03T07:26:41.159Z,1.50
2023-11-03T07:30:23.918Z,1.10
2023-11-03T07:34:06.844Z,1.10
2023-11-03T07:37:52.066Z,1.77
2023-11-03T07:41:35.598Z,1.20
2023-11-03T07:45:18.489Z,1.33
2023-11-03T07:49:01.301Z,1.13
2023-11-03T07:52:44.357Z,1.20
2023-11-03T07:56:35.542Z,1.00
2023-11-03T08:00:21.596Z,1.20
2023-11-03T08:04:05.424Z,1.30
2023-11-03T08:07:49.026Z,1.30
2023-11-03T08:11:33.164Z,1.27
2023-11-03T08:15:16.491Z,1.30
2023-11-03T08:18:59.762Z,1.40
2023-11-03T08:22:42.656Z,1.23
2023-11-03T08:26:25.438Z,1.20
2023-11-03T08:30:10.812Z,1.50
2023-11-03T08:33:53.926Z,1.30
2023-11-03T08:37:36.753Z,1.23
2023-11-03T08:41:20.289Z,1.20
2023-11-03T08:45:03.667Z,1.23
2023-11-03T08:48:47.950Z,1.10
2023-11-03T08:52:31.782Z,1.30
2023-11-03T08:56:14.720Z,1.10
2023-11-03T08:59:57.460Z,1.30
2023-11-03T09:03:41.733Z,1.47
2023-11-03T09:07:25.901Z,1.40
2023-11-03T09:11:08.710Z,1.27
2023-11-03T09:14:51.885Z,1.40
2023-11-03T09:18:38.207Z,1.10
2023-11-03T09:22:28.520Z,1.13
2023-11-03T09:26:17.955Z,1.20
2023-11-03T09:30:01.302Z,1.23
2023-11-03T09:33:44.149Z,0.90
2023-11-03T09:37:26.987Z,1.30
2023-11-03T09:41:10.439Z,1.10
2023-11-03T09:44:54.622Z,1.30
2023-11-03T09:48:39.085Z,1.27
2023-11-03T09:52:24.889Z,1.57
2023-11-03T09:56:08.981Z,1.30
2023-11-03T09:59:51.825Z,1.20
2023-11-03T10:03:36.120Z,1.40
2023-11-03T10:07:19.674Z,1.17
2023-11-03T10:11:06.253Z,1.40
2023-11-03T10:14:49.256Z,1.30
2023-11-03T10:18:32.210Z,1.67
2023-11-03T10:22:16.570Z,1.43
2023-11-03T10:25:59.381Z,1.53
2023-11-03T10:29:42.478Z,1.30
2023-11-03T10:33:26.230Z,1.27
2023-11-03T10:37:10.673Z,1.43
2023-11-03T10:40:55.599Z,1.33
2023-11-03T10:44:39.912Z,1.87
2023-11-03T10:48:28.091Z,2.00
2023-11-03T10:52:13.821Z,1.40
2023-11-03T10:56:15.705Z,1.40
2023-11-03T11:00:12.332Z,1.67
2023-11-03T11:03:59.247Z,1.40
2023-11-03T11:07:44.168Z,1.40
2023-11-03T11:11:29.312Z,1.30
2023-11-03T11:15:13.498Z,1.40
2023-11-03T11:18:56.357Z,1.30
2023-11-03T11:22:42.162Z,1.43
2023-11-03T11:26:34.694Z,1.10
2023-11-03T11:30:20.474Z,1.00
2023-11-03T11:34:04.519Z,1.27
2023-11-03T11:37:47.479Z,1.10
2023-11-03T11:41:31.613Z,1.43
2023-11-03T11:45:15.693Z,1.30
2023-11-03T11:49:02.560Z,1.20
2023-11-03T11:52:50.133Z,1.60
2023-11-03T11:56:33.185Z,1.17
2023-11-03T12:00:17.727Z,1.20
2023-11-03T12:04:07.270Z,1.40
2023-11-03T12:07:50.269Z,1.37
2023-11-03T12:11:34.000Z,1.40
2023-11-03T12:15:16.861Z,1.40
2023-11-03T12:18:59.720Z,1.63
2023-11-03T12:22:44.565Z,1.70
2023-11-03T12:26:27.796Z,1.60
2023-11-03T12:30:12.983Z,1.43
2023-11-03T12:34:02.624Z,1.47
2023-11-03T12:37:47.105Z,1.30
2023-11-03T12:41:30.066Z,1.30
2023-11-03T12:45:13.462Z,1.20
2023-11-03T12:49:07.740Z,1.57
2023-11-03T12:53:04.257Z,1.40
2023-11-03T12:56:47.271Z,1.37
2023-11-03T13:00:33.021Z,1.47
2023-11-03T13:04:16.135Z,1.80
2023-11-03T13:08:03.024Z,1.40
2023-11-03T13:11:47.274Z,1.40
2023-11-03T13:15:30.125Z,1.50
2023-11-03T13:19:12.961Z,1.37
2023-11-03T13:23:00.192Z,1.43
2023-11-03T13:26:44.414Z,1.47
2023-11-03T13:30:27.254Z,1.40
2023-11-03T13:34:10.549Z,1.43
2023-11-03T13:37:53.540Z,1.50
2023-11-03T13:41:36.513Z,1.83
2023-11-03T13:45:20.641Z,1.70
2023-11-03T13:49:05.219Z,1.40
2023-11-03T13:52:48.035Z,1.53
2023-11-03T13:56:30.840Z,1.63
2023-11-03T14:00:15.312Z,1.73
2023-11-03T14:03:59.600Z,1.37
2023-11-03T14:07:42.430Z,1.53
2023-11-03T14:11:25.261Z,1.17
2023-11-03T14:15:10.858Z,1.30
2023-11-03T14:18:54.647Z,1.10
2023-11-03T14:22:38.861Z,1.20
2023-11-03T14:26:24.124Z,1.10
2023-11-03T14:30:09.612Z,1.03
2023-11-03T14:33:53.265Z,1.00
2023-11-03T14:37:36.146Z,1.17
2023-11-03T14:41:20.316Z,0.90
2023-11-03T14:45:03.183Z,1.00
2023-11-03T14:48:46.030Z,1.17
2023-11-03T14:52:29.016Z,1.20
2023-11-03T14:56:11.858Z,1.37
2023-11-03T14:59:55.991Z,1.40
2023-11-03T15:03:39.790Z,1.40
2023-11-03T15:07:23.628Z,1.40
2023-11-03T15:11:06.402Z,1.97
2023-11-03T15:14:49.362Z,1.93
2023-11-03T15:18:34.326Z,1.70
2023-11-03T15:22:17.267Z,1.67
2023-11-03T15:26:00.066Z,1.30
2023-11-03T15:29:43.149Z,2.73
2023-11-03T15:33:25.899Z,1.30
2023-11-03T15:37:11.301Z,1.60
2023-11-03T15:40:54.243Z,1.30
2023-11-03T15:44:36.960Z,1.20
2023-11-03T15:48:19.712Z,1.10
2023-11-03T15:52:02.590Z,1.50
2023-11-03T15:55:48.433Z,1.30
2023-11-03T15:59:31.293Z,1.20
2023-11-03T16:03:16.403Z,1.50
2023-11-03T16:06:59.224Z,1.60
2023-11-03T16:10:43.426Z,1.80
2023-11-03T16:14:27.655Z,1.60
2023-11-03T16:18:11.094Z,1.70
2023-11-03T16:21:53.850Z,2.47
2023-11-03T16:25:36.671Z,1.60
2023-11-03T16:29:19.954Z,2.10
2023-11-03T16:33:04.337Z,1.87
2023-11-03T16:36:47.182Z,2.03
2023-11-03T16:40:30.377Z,2.43
2023-11-03T16:44:13.139Z,2.50
2023-11-03T16:47:56.046Z,2.23
2023-11-03T16:51:45.443Z,1.60
2023-11-03T16:55:31.799Z,1.50
2023-11-03T16:59:18.909Z,1.43
2023-11-03T17:03:01.683Z,1.40
2023-11-03T17:06:45.819Z,1.50
2023-11-03T17:10:28.639Z,1.57
2023-11-03T17:14:11.430Z,1.20
2023-11-03T17:17:54.190Z,1.50
2023-11-03T17:21:36.960Z,1.50
2023-11-03T17:25:21.498Z,2.13
2023-11-03T17:29:07.046Z,1.53
2023-11-03T17:32:50.207Z,1.80
2023-11-03T17:36:33.062Z,1.50
2023-11-03T17:40:17.799Z,1.63
2023-11-03T17:44:02.026Z,1.70
2023-11-03T17:47:46.204Z,1.77
2023-11-03T17:51:29.190Z,1.33
2023-11-03T17:55:14.707Z,1.40
2023-11-03T17:58:57.589Z,1.27
2023-11-03T18:02:41.848Z,1.20
2023-11-03T18:06:24.761Z,1.10
2023-11-03T18:10:08.373Z,1.20
2023-11-03T18:13:51.119Z,1.07
2023-11-03T18:17:34.886Z,1.30
2023-11-03T18:21:19.125Z,1.10
2023-11-03T18:25:01.943Z,1.10
2023-11-03T18:28:44.716Z,0.90
2023-11-03T18:32:28.771Z,1.10
2023-11-03T18:36:14.649Z,1.40
2023-11-03T18:40:00.362Z,1.60
2023-11-03T18:43:44.316Z,1.70
2023-11-03T18:47:27.256Z,1.30
2023-11-03T18:51:26.060Z,1.37
2023-11-03T18:56:06.153Z,1.20
2023-11-03T19:07:30.582Z,2.33
2023-11-03T19:10:54.623Z,2.20
2023-11-03T19:14:37.805Z,1.20
2023-11-03T19:18:21.522Z,1.30
2023-11-03T19:22:05.498Z,1.07
2023-11-03T19:25:48.496Z,1.00
2023-11-03T19:29:36.497Z,1.10
2023-11-03T19:33:19.310Z,0.97
2023-11-03T19:37:02.248Z,1.03
2023-11-03T19:40:45.302Z,1.20
2023-11-03T19:44:28.143Z,1.20
2023-11-03T19:48:12.689Z,1.30
2023-11-03T19:51:55.716Z,1.20
2023-11-03T19:55:39.606Z,1.10
2023-11-03T19:59:24.255Z,1.30
2023-11-03T20:03:07.654Z,1.90
2023-11-03T20:06:52.714Z,1.73
2023-11-03T20:10:36.149Z,1.63
2023-11-03T20:14:19.026Z,1.63
2023-11-03T20:18:04.090Z,1.97
2023-11-03T20:21:47.612Z,1.93
2023-11-03T20:25:31.765Z,2.00
2023-11-03T20:29:14.569Z,1.80
2023-11-03T20:32:58.335Z,2.00
2023-11-03T20:36:41.266Z,1.80
2023-11-03T20:40:24.047Z,1.80
2023-11-03T20:44:08.230Z,1.73
2023-11-03T20:47:51.259Z,2.10
2023-11-03T20:51:34.284Z,2.00
2023-11-03T20:55:17.628Z,2.03
2023-11-03T20:59:00.836Z,1.93
2023-11-03T21:02:49.281Z,1.90
2023-11-03T21:06:34.150Z,2.00
2023-11-03T21:10:18.325Z,1.60
2023-11-03T21:14:01.128Z,1.50
2023-11-03T21:17:45.318Z,1.70
2023-11-03T21:21:28.164Z,1.63
2023-11-03T21:25:12.123Z,1.80
2023-11-03T21:28:54.952Z,1.63
2023-11-03T21:32:37.699Z,1.63
2023-11-03T21:36:25.879Z,1.60
2023-11-03T21:40:16.816Z,1.70
2023-11-03T21:44:00.261Z,1.70
2023-11-03T21:47:49.047Z,1.40
2023-11-03T21:51:33.258Z,1.40
2023-11-03T21:55:16.141Z,1.50
2023-11-03T21:58:58.890Z,1.43
2023-11-03T22:02:41.730Z,1.33
2023-11-03T22:06:24.502Z,1.33
2023-11-03T22:10:10.498Z,1.20
2023-11-03T22:13:53.326Z,1.27
2023-11-03T22:17:45.756Z,1.67
2023-11-03T22:21:33.980Z,1.50
2023-11-03T22:25:18.155Z,1.20
2023-11-03T22:29:00.946Z,1.20
2023-11-03T22:32:43.873Z,1.50
2023-11-03T22:36:27.750Z,1.17
2023-11-03T22:40:12.863Z,1.20
2023-11-03T22:43:57.075Z,1.20
2023-11-03T22:47:40.229Z,1.30
2023-11-03T22:51:23.073Z,1.03
2023-11-03T22:55:06.596Z,1.43
2023-11-03T22:58:49.455Z,1.40
2023-11-03T23:02:33.679Z,1.37
2023-11-03T23:06:19.066Z,1.37
2023-11-03T23:10:02.113Z,1.60
2023-11-03T23:13:45.926Z,1.40
2023-11-03T23:17:28.716Z,1.40
2023-11-03T23:21:13.267Z,1.30
2023-11-03T23:24:56.049Z,1.70
2023-11-03T23:28:41.100Z,1.40
2023-11-03T23:32:24.027Z,1.60
2023-11-03T23:36:07.717Z,1.40
2023-11-03T23:39:51.811Z,1.67
2023-11-03T23:43:34.736Z,1.70
2023-11-03T23:47:17.497Z,1.30
2023-11-03T23:51:00.248Z,1.43
2023-11-03T23:54:43.089Z,1.00
2023-11-03T23:58:27.196Z,1.00
